Ipswich, SD (57451)

3:54 PM CDT on March 27, 2015 (GMT -0500)
KUB Farm | | Change Station
CLOSE
Current Station
Personal Weather Station
Location: Roscoe, SD
Elevation: 1705 ft
Nearby Weather Stations

Elev 1705 ft 45.35 °N, 99.19 °W | Updated 18 seconds ago

Overcast
Overcast
30.0 °F
Feels Like 18 °F
N
17.5
Wind Variable Wind from SE
Gusts 18.0 mph

Today
High -- | Low -- °F
--% Chance of Precip.
Yesterday
High -- | Low -- °F
Precip. -- in
7:26 AM 7:57 PM
First Quarter, 55% visible
Pressure 30.06 in
Visibility 3.0 miles
Clouds Few 900 ft
Mostly Cloudy 1400 ft
Overcast 4800 ft
Windchill 18 °F
Dew Point 29 °F
Humidity 93%
Rainfall 0.00 in
Snow Depth Not available.
UV 2 out of 12
Pollen .40 out of 12
Air Quality Not available.
Flu Activity Not available.
SPECI KABR 272042Z AUTO 17014KT 3SM BR FEW009 BKN014 OVC048 M01/M03 A3006 RMK AO2 SNE06B23E39 P0001 T10111033

More Conditions Fewer Conditions

Pressure 30.06 in
Visibility 3.0 miles
Clouds Few 900 ft
Mostly Cloudy 1400 ft
Overcast 4800 ft
Windchill 18 °F
Dew Point 29 °F
Humidity 93%
Rainfall 0.00 in
Snow Depth Not available.
UV 2 out of 12
Pollen .40 out of 12
Air Quality Not available.
Flu Activity Not available.
SPECI KABR 272042Z AUTO 17014KT 3SM BR FEW009 BKN014 OVC048 M01/M03 A3006 RMK AO2 SNE06B23E39 P0001 T10111033

More Conditions Fewer Conditions

10-Day Weather Forecast

Almanac

Astronomy

Mar. 27, 2015 Rise Set
Actual Time
Civil Twilight
Nautical Twilight
Astronomical Twilight
Moon
Length of Visible Light
Length of Day
Tomorrow will be .
, % of the Moon is Illuminated

Today's Extremes

State Highs State Lows

Community

WunderPhotos

Upload Photos

1,808,822 photos uploaded!

WunderBlogs® & News

Nearby

Air Quality

  Air Quality AQ Index Pollutant
Not available.

Snow Depth

Station Depth Elevation

Earthquake Activity

City Distance Mag. Time & Date
Minimum magnitude displayed is 2.5.

Coastal Water Temperatures

Place Temperature

Stations

Nearby Weather Stations

Station Location Temp. Windchill Dew Point Humidity Wind Precip. Elev Updated Type